createdAt,value
2018-03-18T00:02:34.311Z,8.50
2018-03-18T00:05:02.542Z,11.13
2018-03-18T00:07:29.995Z,11.80
2018-03-18T00:09:57.541Z,6.90
2018-03-18T00:12:24.973Z,5.97
2018-03-18T00:14:53.219Z,6.00
2018-03-18T00:17:20.677Z,6.10
2018-03-18T00:19:48.238Z,6.53
2018-03-18T00:22:15.664Z,7.30
2018-03-18T00:24:43.116Z,5.87
2018-03-18T00:27:10.551Z,6.10
2018-03-18T00:29:38.003Z,6.40
2018-03-18T00:32:06.205Z,7.90
2018-03-18T00:34:34.433Z,5.80
2018-03-18T00:37:01.868Z,6.67
2018-03-18T00:39:29.347Z,5.60
2018-03-18T00:41:56.816Z,6.33
2018-03-18T00:44:24.357Z,6.13
2018-03-18T00:46:51.843Z,5.40
2018-03-18T00:49:19.304Z,6.60
2018-03-18T00:52:03.930Z,6.23
2018-03-18T00:54:31.424Z,5.13
2018-03-18T00:56:58.860Z,5.97
2018-03-18T00:59:26.291Z,6.13
2018-03-18T01:01:54.524Z,6.10
2018-03-18T01:04:21.971Z,6.10
2018-03-18T01:06:49.469Z,5.60
2018-03-18T01:09:17.703Z,6.70
2018-03-18T01:11:45.143Z,5.67
2018-03-18T01:14:12.645Z,5.53
2018-03-18T01:16:40.103Z,5.90
2018-03-18T01:19:07.531Z,5.77
2018-03-18T01:21:34.992Z,5.63
2018-03-18T01:24:02.436Z,6.10
2018-03-18T01:26:30.699Z,5.23
2018-03-18T01:28:58.204Z,5.83
2018-03-18T01:31:25.636Z,5.00
2018-03-18T01:33:53.868Z,6.33
2018-03-18T01:36:21.316Z,4.47
2018-03-18T01:38:48.791Z,5.27
2018-03-18T01:41:16.235Z,5.37
2018-03-18T01:43:43.733Z,4.77
2018-03-18T01:46:11.163Z,5.70
2018-03-18T01:48:38.602Z,7.73
2018-03-18T01:51:06.102Z,6.20
2018-03-18T01:53:33.636Z,5.27
2018-03-18T01:56:01.064Z,5.83
2018-03-18T01:58:29.300Z,5.50
2018-03-18T02:00:56.743Z,5.23
2018-03-18T02:03:24.176Z,4.67
2018-03-18T02:05:52.392Z,5.30
2018-03-18T02:08:19.938Z,5.07
2018-03-18T02:10:47.427Z,4.90
2018-03-18T02:13:14.864Z,5.63
2018-03-18T02:15:42.344Z,5.00
2018-03-18T02:18:09.802Z,5.20
2018-03-18T02:20:37.267Z,4.47
2018-03-18T02:23:04.718Z,5.50
2018-03-18T02:25:32.191Z,5.27
2018-03-18T02:27:59.683Z,5.10
2018-03-18T02:30:27.132Z,4.93
2018-03-18T02:32:54.678Z,4.77
2018-03-18T02:35:22.134Z,5.20
2018-03-18T02:37:49.592Z,5.60
2018-03-18T02:40:17.031Z,4.97
2018-03-18T02:42:44.470Z,4.73
2018-03-18T02:45:12.675Z,4.33
2018-03-18T02:47:40.984Z,4.90
2018-03-18T02:50:08.431Z,5.10
2018-03-18T02:52:35.881Z,4.80
2018-03-18T02:55:03.367Z,4.67
2018-03-18T02:57:30.825Z,4.90
2018-03-18T02:59:58.314Z,6.03
2018-03-18T03:02:25.765Z,3.97
2018-03-18T03:04:53.201Z,5.37
2018-03-18T03:07:20.660Z,5.30
2018-03-18T03:09:48.136Z,5.40
2018-03-18T03:12:15.600Z,4.70
2018-03-18T03:14:43.056Z,5.23
2018-03-18T03:17:10.536Z,5.23
2018-03-18T03:19:37.975Z,5.27
2018-03-18T03:22:05.419Z,4.63
2018-03-18T03:24:32.879Z,5.43
2018-03-18T03:27:00.383Z,5.30
2018-03-18T03:29:28.824Z,5.13
2018-03-18T03:31:56.314Z,5.60
2018-03-18T03:34:23.791Z,4.80
2018-03-18T03:36:52.098Z,4.63
2018-03-18T03:39:20.320Z,5.53
2018-03-18T03:41:47.771Z,5.10
2018-03-18T03:44:15.220Z,5.10
2018-03-18T03:46:42.670Z,5.50
2018-03-18T03:49:10.171Z,5.47
2018-03-18T03:51:37.644Z,6.00
2018-03-18T03:54:05.096Z,7.13
2018-03-18T03:56:32.535Z,5.77
2018-03-18T03:59:00.026Z,5.17
2018-03-18T04:01:27.492Z,6.20
2018-03-18T04:03:54.959Z,5.47
2018-03-18T04:06:22.430Z,5.50
2018-03-18T04:08:49.969Z,5.73
2018-03-18T04:11:17.400Z,4.27
2018-03-18T04:13:44.843Z,6.03
2018-03-18T04:16:13.078Z,4.17
2018-03-18T04:18:40.514Z,5.57
2018-03-18T04:21:07.991Z,4.77
2018-03-18T04:23:35.439Z,5.00
2018-03-18T04:26:02.881Z,5.20
2018-03-18T04:28:30.308Z,4.80
2018-03-18T04:30:59.284Z,6.57
2018-03-18T04:33:26.752Z,5.27
2018-03-18T04:35:54.307Z,5.07
2018-03-18T04:38:21.760Z,5.13
2018-03-18T04:40:49.198Z,5.27
2018-03-18T04:43:16.683Z,5.97
2018-03-18T04:45:44.149Z,5.27
2018-03-18T04:48:11.712Z,6.20
2018-03-18T04:50:39.165Z,4.77
2018-03-18T04:53:06.613Z,5.10
2018-03-18T04:55:34.051Z,4.60
2018-03-18T04:58:01.487Z,4.87
2018-03-18T05:00:29.010Z,4.83
2018-03-18T05:02:56.463Z,5.10
2018-03-18T05:05:23.909Z,5.17
2018-03-18T05:07:51.395Z,5.00
2018-03-18T05:10:18.857Z,4.83
2018-03-18T05:12:46.382Z,5.63
2018-03-18T05:15:13.783Z,4.83
2018-03-18T05:17:41.222Z,5.17
2018-03-18T05:20:08.703Z,5.37
2018-03-18T05:22:36.265Z,4.30
2018-03-18T05:25:03.723Z,4.77
2018-03-18T05:27:31.185Z,4.80
2018-03-18T05:29:58.646Z,4.70
2018-03-18T05:32:26.089Z,5.20
2018-03-18T05:34:53.547Z,4.90
2018-03-18T05:37:21.052Z,5.47
2018-03-18T05:39:48.496Z,6.30
2018-03-18T05:42:15.943Z,5.40
2018-03-18T05:44:43.416Z,5.87
2018-03-18T05:47:10.888Z,5.50
2018-03-18T05:49:38.339Z,4.47
2018-03-18T05:52:05.771Z,5.23
2018-03-18T05:54:33.215Z,5.80
2018-03-18T05:57:01.435Z,6.40
2018-03-18T05:59:28.877Z,6.37
2018-03-18T06:01:56.315Z,5.80
2018-03-18T06:04:24.519Z,5.83
2018-03-18T06:06:51.996Z,4.83
2018-03-18T06:09:19.440Z,6.17
2018-03-18T06:11:46.880Z,5.83
2018-03-18T06:14:15.094Z,7.60
2018-03-18T06:16:42.552Z,6.83
2018-03-18T06:19:10.015Z,8.13
2018-03-18T06:21:37.484Z,6.27
2018-03-18T06:24:04.922Z,7.33
2018-03-18T06:26:32.411Z,5.47
2018-03-18T06:28:59.935Z,7.67
2018-03-18T06:31:27.390Z,5.03
2018-03-18T06:33:55.607Z,7.73
2018-03-18T06:36:23.071Z,6.07
2018-03-18T06:38:50.524Z,5.97
2018-03-18T06:41:17.964Z,6.70
2018-03-18T06:43:45.473Z,6.23
2018-03-18T06:46:13.029Z,7.70
2018-03-18T06:48:40.487Z,6.90
2018-03-18T06:51:07.968Z,5.50
2018-03-18T06:53:35.397Z,7.00
2018-03-18T06:56:02.968Z,6.23
2018-03-18T06:58:30.437Z,6.17
2018-03-18T07:00:57.911Z,6.40
2018-03-18T07:03:25.431Z,7.00
2018-03-18T07:05:52.850Z,6.20
2018-03-18T07:08:20.305Z,5.97
2018-03-18T07:10:47.739Z,6.60
2018-03-18T07:13:15.278Z,6.50
2018-03-18T07:15:42.768Z,6.87
2018-03-18T07:18:10.231Z,7.23
2018-03-18T07:20:37.670Z,5.50
2018-03-18T07:23:05.144Z,6.97
2018-03-18T07:25:32.614Z,5.40
2018-03-18T07:28:00.079Z,7.50
2018-03-18T07:30:27.514Z,7.10
2018-03-18T07:32:54.952Z,6.03
2018-03-18T07:35:22.405Z,5.77
2018-03-18T07:37:50.627Z,5.67
2018-03-18T07:40:18.068Z,6.60
2018-03-18T07:42:45.528Z,6.40
2018-03-18T07:45:13.140Z,6.07
2018-03-18T07:47:40.567Z,6.30
2018-03-18T07:50:08.016Z,6.10
2018-03-18T07:52:35.455Z,5.20
2018-03-18T07:55:03.715Z,4.67
2018-03-18T07:57:31.940Z,6.03
2018-03-18T07:59:59.396Z,5.70
2018-03-18T08:02:26.851Z,5.37
2018-03-18T08:04:54.312Z,5.60
2018-03-18T08:07:21.813Z,5.70
2018-03-18T08:09:49.255Z,4.10
2018-03-18T08:12:16.691Z,5.77
2018-03-18T08:14:44.140Z,5.73
2018-03-18T08:17:12.369Z,4.47
2018-03-18T08:19:39.859Z,5.13
2018-03-18T08:22:07.264Z,5.97
2018-03-18T08:24:34.719Z,6.90
2018-03-18T08:27:02.168Z,4.67
2018-03-18T08:29:30.395Z,5.50
2018-03-18T08:31:57.855Z,4.43
2018-03-18T08:34:25.313Z,5.70
2018-03-18T08:36:52.755Z,6.20
2018-03-18T08:39:20.203Z,5.30
2018-03-18T08:41:47.776Z,4.70
2018-03-18T08:44:15.195Z,5.90
2018-03-18T08:46:43.460Z,4.40
2018-03-18T08:49:10.895Z,5.80
2018-03-18T08:51:38.364Z,5.30
2018-03-18T08:54:05.796Z,5.40
2018-03-18T08:56:33.241Z,5.30
2018-03-18T08:59:00.684Z,5.60
2018-03-18T09:01:29.739Z,5.43
2018-03-18T09:03:57.202Z,6.30
2018-03-18T09:06:24.743Z,4.80
2018-03-18T09:08:52.166Z,5.23
2018-03-18T09:11:19.620Z,7.03
2018-03-18T09:13:47.061Z,5.30
2018-03-18T09:16:14.518Z,6.07
2018-03-18T09:18:41.971Z,5.33
2018-03-18T09:21:09.432Z,5.63
2018-03-18T09:23:36.926Z,5.73
2018-03-18T09:26:04.345Z,5.70
2018-03-18T09:28:31.788Z,5.90
2018-03-18T09:30:59.222Z,5.30
2018-03-18T09:33:27.533Z,6.67
2018-03-18T09:35:54.955Z,5.10
2018-03-18T09:38:22.486Z,5.47
2018-03-18T09:40:49.922Z,6.87
2018-03-18T09:43:17.352Z,5.77
2018-03-18T09:45:45.558Z,6.57
2018-03-18T09:48:13.000Z,6.00
2018-03-18T09:50:41.235Z,5.13
2018-03-18T09:53:08.706Z,6.00
2018-03-18T09:55:36.249Z,6.07
2018-03-18T09:58:03.704Z,6.40
2018-03-18T10:00:31.143Z,6.30
2018-03-18T10:02:58.572Z,5.47
2018-03-18T10:05:26.819Z,6.00
2018-03-18T10:07:54.276Z,5.20
2018-03-18T10:10:22.126Z,5.50
2018-03-18T10:12:49.552Z,5.40
2018-03-18T10:15:17.761Z,6.23
2018-03-18T10:17:45.183Z,4.67
2018-03-18T10:20:13.441Z,4.90
2018-03-18T10:22:40.876Z,5.47
2018-03-18T10:25:08.335Z,5.37
2018-03-18T10:27:35.800Z,4.47
2018-03-18T10:30:03.249Z,5.30
2018-03-18T10:32:30.840Z,7.73
2018-03-18T10:34:58.276Z,7.23
2018-03-18T10:37:25.747Z,5.17
2018-03-18T10:39:53.181Z,4.90
2018-03-18T10:42:20.616Z,4.30
2018-03-18T10:44:48.817Z,4.70
2018-03-18T10:47:16.251Z,6.53
2018-03-18T10:49:44.448Z,5.90
2018-03-18T10:52:11.953Z,8.53
2018-03-18T10:54:39.380Z,6.20
2018-03-18T10:57:06.845Z,6.00
2018-03-18T10:59:34.268Z,4.23
2018-03-18T11:02:05.292Z,5.80
2018-03-18T11:04:32.737Z,6.60
2018-03-18T11:07:00.194Z,5.27
2018-03-18T11:09:27.660Z,6.03
2018-03-18T11:11:55.100Z,4.60
2018-03-18T11:14:22.553Z,5.53
2018-03-18T11:16:50.044Z,4.20
2018-03-18T11:19:17.478Z,4.80
2018-03-18T11:21:44.915Z,6.43
2018-03-18T11:24:13.133Z,6.30
2018-03-18T11:26:40.560Z,5.30
2018-03-18T11:29:08.073Z,5.53
2018-03-18T11:31:35.504Z,6.13
2018-03-18T11:34:02.939Z,4.83
2018-03-18T11:36:31.168Z,5.83
2018-03-18T11:38:58.624Z,6.40
2018-03-18T11:41:26.080Z,7.93
2018-03-18T11:43:53.528Z,4.60
2018-03-18T11:46:20.986Z,4.73
2018-03-18T11:48:48.405Z,4.40
2018-03-18T11:51:15.863Z,5.93
2018-03-18T11:53:43.392Z,4.33
2018-03-18T11:56:10.833Z,4.40
2018-03-18T11:58:39.044Z,4.60
2018-03-18T12:01:06.536Z,4.63
2018-03-18T12:03:33.915Z,4.63
2018-03-18T12:06:01.352Z,4.13
2018-03-18T12:08:40.655Z,3.90
2018-03-18T12:11:08.111Z,5.57
2018-03-18T12:13:35.568Z,4.83
2018-03-18T12:16:03.033Z,4.33
2018-03-18T12:18:30.469Z,5.37
2018-03-18T12:20:57.951Z,4.67
2018-03-18T12:23:25.494Z,5.10
2018-03-18T12:25:52.976Z,4.40
2018-03-18T12:28:20.412Z,4.23
2018-03-18T12:30:47.900Z,4.70
2018-03-18T12:33:15.337Z,3.70
2018-03-18T12:35:42.856Z,5.13
2018-03-18T12:38:10.295Z,4.60
2018-03-18T12:40:37.743Z,4.50
2018-03-18T12:43:29.767Z,5.10
2018-03-18T12:45:58.129Z,4.67
2018-03-18T12:48:25.692Z,4.13
2018-03-18T12:50:53.492Z,3.67
2018-03-18T12:53:20.940Z,5.07
2018-03-18T12:55:48.380Z,5.90
2018-03-18T12:58:15.859Z,4.23
2018-03-18T13:00:43.284Z,3.77
2018-03-18T13:03:10.707Z,3.83
2018-03-18T13:05:38.157Z,3.93
2018-03-18T13:08:05.612Z,4.63
2018-03-18T13:10:33.039Z,3.57
2018-03-18T13:13:00.483Z,4.50
2018-03-18T13:15:28.703Z,3.20
2018-03-18T13:17:56.267Z,3.57
2018-03-18T13:20:23.715Z,3.93
2018-03-18T13:22:51.135Z,3.93
2018-03-18T13:25:19.396Z,5.13
2018-03-18T13:27:46.816Z,3.97
2018-03-18T13:30:14.292Z,4.47
2018-03-18T13:32:41.757Z,3.43
2018-03-18T13:35:09.219Z,3.60
2018-03-18T13:37:36.760Z,3.57
2018-03-18T13:40:04.244Z,3.97
2018-03-18T13:42:31.688Z,3.47
2018-03-18T13:44:59.111Z,3.80
2018-03-18T13:47:27.353Z,3.50
2018-03-18T13:49:54.775Z,3.47
2018-03-18T13:52:22.211Z,4.37
2018-03-18T13:54:50.454Z,3.80
2018-03-18T13:57:17.909Z,4.10
2018-03-18T13:59:45.333Z,4.23
2018-03-18T14:02:12.832Z,4.57
2018-03-18T14:04:40.370Z,3.47
2018-03-18T14:07:07.847Z,4.77
2018-03-18T14:09:35.340Z,4.77
2018-03-18T14:12:02.789Z,3.70
2018-03-18T14:14:30.239Z,4.00
2018-03-18T14:16:57.673Z,3.67
2018-03-18T14:19:25.115Z,7.73
2018-03-18T14:21:53.315Z,4.70
2018-03-18T14:24:20.769Z,6.33
2018-03-18T14:26:48.953Z,5.57
2018-03-18T14:29:16.427Z,4.47
2018-03-18T14:31:43.879Z,3.83
2018-03-18T14:34:11.364Z,3.57
2018-03-18T14:36:38.810Z,3.83
2018-03-18T14:39:06.235Z,3.50
2018-03-18T14:41:34.464Z,3.80
2018-03-18T14:44:01.915Z,3.77
2018-03-18T14:46:29.335Z,2.97
2018-03-18T14:48:57.532Z,3.70
2018-03-18T14:51:25.023Z,2.60
2018-03-18T14:53:52.465Z,3.50
2018-03-18T14:56:19.952Z,3.67
2018-03-18T14:58:47.375Z,3.30
2018-03-18T15:01:14.897Z,3.53
2018-03-18T15:03:42.307Z,3.07
2018-03-18T15:06:09.747Z,3.40
2018-03-18T15:08:38.360Z,2.90
2018-03-18T15:11:05.791Z,2.83
2018-03-18T15:13:34.129Z,3.80
2018-03-18T15:16:01.556Z,3.80
2018-03-18T15:18:28.995Z,2.90
2018-03-18T15:20:57.224Z,3.30
2018-03-18T15:23:24.659Z,3.00
2018-03-18T15:25:52.083Z,3.00
2018-03-18T15:28:20.323Z,3.23
2018-03-18T15:30:47.752Z,3.70
2018-03-18T15:33:15.324Z,4.40
2018-03-18T15:35:42.807Z,3.33
2018-03-18T15:38:10.272Z,5.70
2018-03-18T15:40:37.732Z,4.20
2018-03-18T15:43:05.173Z,2.83
2018-03-18T15:45:32.737Z,3.50
2018-03-18T15:48:00.296Z,3.33
2018-03-18T15:50:27.703Z,3.37
2018-03-18T15:52:55.140Z,3.20
2018-03-18T15:55:22.577Z,3.87
2018-03-18T15:57:50.000Z,3.00
2018-03-18T16:00:18.249Z,3.17
2018-03-18T16:02:45.698Z,3.27
2018-03-18T16:05:13.176Z,3.30
2018-03-18T16:07:40.709Z,4.00
2018-03-18T16:10:08.137Z,3.50
2018-03-18T16:12:36.390Z,3.30
2018-03-18T16:15:03.828Z,3.20
2018-03-18T16:17:31.300Z,3.30
2018-03-18T16:19:58.748Z,3.20
2018-03-18T16:22:26.225Z,4.63
2018-03-18T16:24:53.752Z,4.23
2018-03-18T16:27:21.228Z,3.50
2018-03-18T16:30:00.455Z,2.93
2018-03-18T16:32:27.916Z,3.00
2018-03-18T16:34:55.366Z,3.73
2018-03-18T16:37:22.843Z,3.37
2018-03-18T16:39:50.288Z,3.10
2018-03-18T16:42:17.772Z,3.23
2018-03-18T16:44:45.228Z,3.30
2018-03-18T16:47:12.674Z,3.60
2018-03-18T16:49:40.154Z,3.17
2018-03-18T16:52:07.597Z,3.00
2018-03-18T16:54:35.023Z,4.20
2018-03-18T16:57:03.264Z,4.40
2018-03-18T16:59:30.799Z,5.50
2018-03-18T17:01:58.233Z,4.63
2018-03-18T17:04:26.455Z,3.43
2018-03-18T17:06:53.901Z,3.27
2018-03-18T17:09:21.339Z,3.50
2018-03-18T17:11:49.539Z,2.27
2018-03-18T17:14:17.019Z,2.90
2018-03-18T17:16:44.572Z,2.87
2018-03-18T17:19:12.007Z,3.73
2018-03-18T17:21:40.200Z,3.50
2018-03-18T17:24:07.643Z,3.17
2018-03-18T17:26:35.876Z,3.50
2018-03-18T17:29:03.318Z,3.47
2018-03-18T17:31:30.796Z,3.53
2018-03-18T17:33:58.256Z,3.10
2018-03-18T17:36:25.699Z,3.07
2018-03-18T17:38:53.180Z,3.30
2018-03-18T17:41:20.711Z,3.50
2018-03-18T17:43:48.191Z,3.33
2018-03-18T17:46:27.533Z,3.03
2018-03-18T17:49:07.063Z,4.00
2018-03-18T17:54:46.252Z,3.27
2018-03-18T17:57:14.505Z,4.20
2018-03-18T17:59:42.712Z,3.73
2018-03-18T18:02:10.920Z,3.63
2018-03-18T18:04:38.364Z,3.00
2018-03-18T18:07:05.807Z,3.33
2018-03-18T18:09:34.056Z,3.47
2018-03-18T18:12:01.483Z,2.77
2018-03-18T18:14:28.927Z,3.13
2018-03-18T18:16:56.433Z,3.00
2018-03-18T18:19:23.894Z,3.03
2018-03-18T18:21:51.318Z,3.20
2018-03-18T18:24:18.744Z,3.97
2018-03-18T18:26:46.960Z,3.50
2018-03-18T18:29:14.520Z,3.17
2018-03-18T18:31:41.951Z,3.03
2018-03-18T18:34:10.285Z,2.90
2018-03-18T18:36:37.728Z,3.60
2018-03-18T18:39:05.176Z,3.63
2018-03-18T18:41:32.616Z,2.97
2018-03-18T18:44:00.816Z,3.10
2018-03-18T18:46:28.280Z,3.00
2018-03-18T18:48:55.750Z,3.30
2018-03-18T18:51:23.207Z,2.90
2018-03-18T18:53:50.701Z,3.53
2018-03-18T18:56:18.131Z,3.30
2018-03-18T18:58:45.590Z,3.07
2018-03-18T19:01:13.089Z,5.43
2018-03-18T19:03:40.548Z,3.20
2018-03-18T19:06:08.010Z,3.37
2018-03-18T19:08:35.456Z,2.83
2018-03-18T19:11:02.914Z,4.20
2018-03-18T19:13:30.341Z,2.63
2018-03-18T19:15:58.640Z,3.33
2018-03-18T19:18:26.203Z,3.00
2018-03-18T19:20:53.696Z,3.33
2018-03-18T19:23:21.143Z,5.20
2018-03-18T19:25:48.631Z,3.20
2018-03-18T19:28:16.107Z,2.83
2018-03-18T19:30:43.625Z,3.20
2018-03-18T19:33:11.056Z,2.60
2018-03-18T19:35:39.278Z,3.00
2018-03-18T19:38:06.758Z,4.00
2018-03-18T19:40:34.277Z,3.00
2018-03-18T19:43:01.696Z,3.20
2018-03-18T19:45:29.151Z,3.30
2018-03-18T19:47:56.661Z,2.80
2018-03-18T19:50:24.094Z,3.10
2018-03-18T19:52:52.301Z,7.03
2018-03-18T19:55:19.815Z,4.33
2018-03-18T19:57:47.326Z,4.20
2018-03-18T20:00:14.824Z,6.33
2018-03-18T20:02:42.276Z,3.50
2018-03-18T20:05:09.740Z,3.80
2018-03-18T20:07:37.173Z,4.30
2018-03-18T20:10:04.657Z,3.43
2018-03-18T20:12:32.137Z,3.10
2018-03-18T20:14:59.577Z,3.13
2018-03-18T20:17:27.049Z,4.73
2018-03-18T20:19:54.536Z,3.80
2018-03-18T20:22:21.967Z,2.97
2018-03-18T20:24:49.428Z,3.10
2018-03-18T20:27:16.868Z,3.60
2018-03-18T20:29:44.426Z,3.87
2018-03-18T20:32:11.872Z,4.93
2018-03-18T20:34:39.372Z,3.50
2018-03-18T20:37:06.821Z,3.30
2018-03-18T20:39:34.274Z,3.00
2018-03-18T20:42:01.760Z,3.53
2018-03-18T20:44:29.196Z,3.47
2018-03-18T20:46:56.656Z,3.17
2018-03-18T20:49:24.095Z,6.27
2018-03-18T20:51:52.404Z,3.30
2018-03-18T20:54:19.858Z,3.50
2018-03-18T20:56:47.350Z,3.70
2018-03-18T20:59:14.788Z,3.20
2018-03-18T21:01:42.223Z,3.17
2018-03-18T21:04:10.451Z,4.60
2018-03-18T21:06:37.883Z,3.80
2018-03-18T21:09:05.448Z,4.53
2018-03-18T21:11:32.870Z,3.13
2018-03-18T21:14:00.423Z,4.07
2018-03-18T21:16:27.872Z,2.83
2018-03-18T21:18:55.548Z,3.20
2018-03-18T21:21:22.983Z,2.87
2018-03-18T21:23:50.420Z,3.10
2018-03-18T21:26:18.224Z,3.30
2018-03-18T21:28:45.696Z,3.30
2018-03-18T21:31:13.173Z,4.13
2018-03-18T21:33:40.704Z,3.40
2018-03-18T21:36:08.161Z,4.33
2018-03-18T21:38:35.607Z,3.53
2018-03-18T21:41:03.120Z,2.87
2018-03-18T21:43:30.648Z,3.00
2018-03-18T21:45:58.090Z,2.80
2018-03-18T21:48:25.615Z,3.40
2018-03-18T21:50:53.827Z,2.77
2018-03-18T21:53:21.257Z,3.27
2018-03-18T21:55:49.479Z,3.70
2018-03-18T21:58:16.920Z,3.60
2018-03-18T22:00:44.368Z,2.83
2018-03-18T22:03:12.583Z,3.27
2018-03-18T22:05:40.068Z,3.00
2018-03-18T22:08:07.503Z,3.60
2018-03-18T22:10:35.051Z,2.90
2018-03-18T22:13:02.467Z,3.20
2018-03-18T22:15:29.909Z,3.53
2018-03-18T22:17:57.359Z,2.47
2018-03-18T22:20:24.794Z,3.00
2018-03-18T22:22:52.244Z,4.53
2018-03-18T22:25:20.432Z,3.33
2018-03-18T22:27:47.920Z,2.60
2018-03-18T22:30:15.364Z,5.50
2018-03-18T22:32:42.843Z,3.43
2018-03-18T22:35:10.361Z,3.33
2018-03-18T22:37:38.565Z,3.50
2018-03-18T22:40:06.052Z,3.63
2018-03-18T22:42:33.501Z,3.73
2018-03-18T22:45:00.941Z,3.30
2018-03-18T22:47:28.388Z,2.93
2018-03-18T22:49:56.584Z,3.20
2018-03-18T22:52:24.057Z,3.73
2018-03-18T22:54:51.500Z,3.37
2018-03-18T22:57:19.005Z,2.60
2018-03-18T22:59:46.447Z,3.03
2018-03-18T23:02:13.880Z,3.60
2018-03-18T23:04:41.331Z,3.50
2018-03-18T23:07:09.559Z,3.20
2018-03-18T23:09:37.000Z,2.93
2018-03-18T23:12:04.454Z,2.97
2018-03-18T23:14:31.931Z,3.13
2018-03-18T23:16:59.399Z,3.30
2018-03-18T23:19:26.836Z,2.87
2018-03-18T23:21:54.271Z,3.80
2018-03-18T23:24:22.501Z,3.07
2018-03-18T23:26:49.952Z,2.90
2018-03-18T23:29:17.428Z,2.83
2018-03-18T23:31:44.864Z,3.70
2018-03-18T23:34:12.341Z,2.50
2018-03-18T23:36:39.779Z,3.33
2018-03-18T23:39:07.247Z,3.07
2018-03-18T23:41:34.727Z,3.07
2018-03-18T23:44:02.184Z,2.67
2018-03-18T23:46:29.658Z,3.10
2018-03-18T23:48:57.111Z,3.17
2018-03-18T23:51:24.568Z,3.20
2018-03-18T23:53:52.008Z,3.10
2018-03-18T23:56:19.526Z,4.07
2018-03-18T23:58:46.962Z,3.10
